sensor_id;sensor_type;location;lat;lon;timestamp;pressure;altitude;pressure_sealevel;temperature;humidity
16431;BME280;8325;49.284;7.238;2022-11-14T05:02:31;98474.44;;;6.05;100.00
16431;BME280;8325;49.284;7.238;2022-11-14T05:07:01;98477.47;;;6.00;100.00
16431;BME280;8325;49.284;7.238;2022-11-14T05:11:32;98478.81;;;6.04;100.00
16431;BME280;8325;49.284;7.238;2022-11-14T05:16:02;98466.38;;;6.08;100.00
16431;BME280;8325;49.284;7.238;2022-11-14T05:20:32;98475.94;;;6.07;100.00
16431;BME280;8325;49.284;7.238;2022-11-14T05:25:03;98479.63;;;6.05;100.00
16431;BME280;8325;49.284;7.238;2022-11-14T05:29:33;98483.84;;;6.06;100.00
16431;BME280;8325;49.284;7.238;2022-11-14T05:34:03;98477.16;;;6.03;100.00
16431;BME280;8325;49.284;7.238;2022-11-14T05:38:34;98471.69;;;6.06;100.00
16431;BME280;8325;49.284;7.238;2022-11-14T05:43:04;98458.44;;;6.09;100.00
16431;BME280;8325;49.284;7.238;2022-11-14T05:47:35;98459.41;;;6.08;100.00
16431;BME280;8325;49.284;7.238;2022-11-14T05:52:06;98448.16;;;6.17;100.00
16431;BME280;8325;49.284;7.238;2022-11-14T05:56:36;98444.75;;;6.17;100.00
16431;BME280;8325;49.284;7.238;2022-11-14T06:01:12;98433.19;;;6.11;100.00
16431;BME280;8325;49.284;7.238;2022-11-14T06:05:42;98434.16;;;6.10;100.00
16431;BME280;8325;49.284;7.238;2022-11-14T06:10:13;98429.78;;;6.11;100.00
16431;BME280;8325;49.284;7.238;2022-11-14T06:14:43;98439.03;;;6.13;100.00
16431;BME280;8325;49.284;7.238;2022-11-14T06:19:13;98441.03;;;6.19;100.00
16431;BME280;8325;49.284;7.238;2022-11-14T06:23:44;98438.28;;;6.21;100.00
16431;BME280;8325;49.284;7.238;2022-11-14T06:28:15;98445.25;;;6.20;100.00
16431;BME280;8325;49.284;7.238;2022-11-14T06:32:45;98432.22;;;6.12;100.00
16431;BME280;8325;49.284;7.238;2022-11-14T06:37:16;98438.28;;;6.03;100.00
16431;BME280;8325;49.284;7.238;2022-11-14T06:41:46;98436.66;;;6.02;100.00
16431;BME280;8325;49.284;7.238;2022-11-14T06:46:18;98452.22;;;6.02;100.00
16431;BME280;8325;49.284;7.238;2022-11-14T06:50:56;98442.59;;;6.12;100.00
16431;BME280;8325;49.284;7.238;2022-11-14T06:55:27;98447.16;;;6.18;100.00
16431;BME280;8325;49.284;7.238;2022-11-14T06:59:57;98454.31;;;6.16;100.00
16431;BME280;8325;49.284;7.238;2022-11-14T07:04:27;98461.50;;;6.22;100.00
16431;BME280;8325;49.284;7.238;2022-11-14T07:08:58;98458.59;;;6.26;100.00
16431;BME280;8325;49.284;7.238;2022-11-14T07:13:29;98449.03;;;6.26;100.00
16431;BME280;8325;49.284;7.238;2022-11-14T07:18:00;98450.97;;;6.24;100.00
16431;BME280;8325;49.284;7.238;2022-11-14T07:22:30;98453.41;;;6.26;100.00
16431;BME280;8325;49.284;7.238;2022-11-14T07:27:00;98452.81;;;6.32;100.00
16431;BME280;8325;49.284;7.238;2022-11-14T07:31:31;98452.53;;;6.35;100.00
16431;BME280;8325;49.284;7.238;2022-11-14T07:36:01;98444.88;;;6.33;100.00
16431;BME280;8325;49.284;7.238;2022-11-14T07:40:31;98437.31;;;6.40;100.00
16431;BME280;8325;49.284;7.238;2022-11-14T07:45:02;98442.97;;;6.35;100.00
16431;BME280;8325;49.284;7.238;2022-11-14T07:49:32;98453.13;;;6.29;100.00
16431;BME280;8325;49.284;7.238;2022-11-14T07:54:03;98453.13;;;6.29;100.00
16431;BME280;8325;49.284;7.238;2022-11-14T07:58:35;98450.53;;;6.29;100.00
16431;BME280;8325;49.284;7.238;2022-11-14T08:03:06;98452.81;;;6.32;100.00
16431;BME280;8325;49.284;7.238;2022-11-14T08:07:37;98457.84;;;6.33;100.00
16431;BME280;8325;49.284;7.238;2022-11-14T08:12:07;98453.41;;;6.43;100.00
16431;BME280;8325;49.284;7.238;2022-11-14T08:16:37;98456.63;;;6.63;99.54
16431;BME280;8325;49.284;7.238;2022-11-14T08:21:08;98438.53;;;6.72;99.46
16431;BME280;8325;49.284;7.238;2022-11-14T08:25:39;98428.19;;;6.80;100.00
16431;BME280;8325;49.284;7.238;2022-11-14T08:30:10;98436.72;;;6.90;99.46
16431;BME280;8325;49.284;7.238;2022-11-14T08:34:40;98451.31;;;6.91;98.96
16431;BME280;8325;49.284;7.238;2022-11-14T08:39:11;98462.59;;;6.82;98.70
16431;BME280;8325;49.284;7.238;2022-11-14T08:43:41;98453.84;;;6.83;98.93
16431;BME280;8325;49.284;7.238;2022-11-14T08:48:11;98461.81;;;6.81;98.86
16431;BME280;8325;49.284;7.238;2022-11-14T08:52:42;98462.69;;;6.90;99.30
16431;BME280;8325;49.284;7.238;2022-11-14T08:57:12;98451.91;;;6.85;98.30
16431;BME280;8325;49.284;7.238;2022-11-14T09:01:44;98448.81;;;6.81;98.66
16431;BME280;8325;49.284;7.238;2022-11-14T09:06:15;98446.63;;;6.95;99.49
16431;BME280;8325;49.284;7.238;2022-11-14T09:10:45;98442.91;;;6.97;99.05
16431;BME280;8325;49.284;7.238;2022-11-14T09:15:15;98446.56;;;7.12;99.61
16431;BME280;8325;49.284;7.238;2022-11-14T09:19:46;98449.66;;;7.16;98.83
16431;BME280;8325;49.284;7.238;2022-11-14T09:24:16;98443.50;;;7.17;98.05
16431;BME280;8325;49.284;7.238;2022-11-14T09:28:46;98451.94;;;7.19;98.60
16431;BME280;8325;49.284;7.238;2022-11-14T09:33:17;98448.38;;;7.20;97.66
16431;BME280;8325;49.284;7.238;2022-11-14T09:37:47;98445.81;;;7.28;98.23
16431;BME280;8325;49.284;7.238;2022-11-14T09:42:24;98447.97;;;7.33;98.14
16431;BME280;8325;49.284;7.238;2022-11-14T09:47:01;98447.53;;;7.46;99.00
16431;BME280;8325;49.284;7.238;2022-11-14T09:51:37;98443.16;;;7.46;97.39
16431;BME280;8325;49.284;7.238;2022-11-14T09:56:12;98445.25;;;7.51;97.76
16431;BME280;8325;49.284;7.238;2022-11-14T10:05:21;98442.16;;;7.39;97.48
16431;BME280;8325;49.284;7.238;2022-11-14T10:15:12;98444.28;;;7.44;96.82
16431;BME280;8325;49.284;7.238;2022-11-14T10:29:15;98430.34;;;7.53;97.25
16431;BME280;8325;49.284;7.238;2022-11-14T10:34:28;98421.41;;;7.55;96.39
16431;BME280;8325;49.284;7.238;2022-11-14T10:44:11;98429.84;;;7.49;96.38
16431;BME280;8325;49.284;7.238;2022-11-14T10:48:48;98425.94;;;7.45;96.72
16431;BME280;8325;49.284;7.238;2022-11-14T10:53:49;98423.47;;;7.44;96.72
16431;BME280;8325;49.284;7.238;2022-11-14T10:58:21;98419.75;;;7.46;97.19
16431;BME280;8325;49.284;7.238;2022-11-14T11:02:56;98417.16;;;7.46;96.79
16431;BME280;8325;49.284;7.238;2022-11-14T11:07:26;98411.59;;;7.41;96.83
16431;BME280;8325;49.284;7.238;2022-11-14T11:12:51;98407.06;;;7.43;97.27
16431;BME280;8325;49.284;7.238;2022-11-14T11:17:22;98403.19;;;7.47;96.95
16431;BME280;8325;49.284;7.238;2022-11-14T11:22:00;98395.41;;;7.55;96.85
16431;BME280;8325;49.284;7.238;2022-11-14T11:26:31;98403.38;;;7.54;97.17
16431;BME280;8325;49.284;7.238;2022-11-14T11:31:06;98401.78;;;7.61;98.47
16431;BME280;8325;49.284;7.238;2022-11-14T11:35:39;98398.69;;;7.57;97.28
16431;BME280;8325;49.284;7.238;2022-11-14T11:40:17;98389.25;;;7.56;97.11
16431;BME280;8325;49.284;7.238;2022-11-14T11:44:52;98398.38;;;7.60;97.12
16431;BME280;8325;49.284;7.238;2022-11-14T11:49:42;98400.63;;;7.55;97.12
16431;BME280;8325;49.284;7.238;2022-11-14T11:54:24;98399.81;;;7.55;98.08
16431;BME280;8325;49.284;7.238;2022-11-14T12:03:49;98396.72;;;7.59;97.96
16431;BME280;8325;49.284;7.238;2022-11-14T12:08:33;98397.88;;;7.65;97.87
16431;BME280;8325;49.284;7.238;2022-11-14T12:22:42;98400.03;;;7.78;97.74
16431;BME280;8325;49.284;7.238;2022-11-14T12:27:48;98404.91;;;7.81;98.15
16431;BME280;8325;49.284;7.238;2022-11-14T12:32:31;98397.25;;;7.88;97.75
16431;BME280;8325;49.284;7.238;2022-11-14T12:37:22;98395.47;;;7.88;98.26
16431;BME280;8325;49.284;7.238;2022-11-14T12:42:01;98394.66;;;7.88;97.80
16431;BME280;8325;49.284;7.238;2022-11-14T13:05:53;98385.41;;;7.93;98.98
16431;BME280;8325;49.284;7.238;2022-11-14T13:10:29;98395.84;;;8.01;98.96
16431;BME280;8325;49.284;7.238;2022-11-14T13:15:20;98384.94;;;7.98;99.31
16431;BME280;8325;49.284;7.238;2022-11-14T13:34:45;98366.09;;;8.28;98.75
16431;BME280;8325;49.284;7.238;2022-11-14T13:39:28;98361.69;;;8.29;99.07
16431;BME280;8325;49.284;7.238;2022-11-14T13:44:13;98358.59;;;8.34;99.47
16431;BME280;8325;49.284;7.238;2022-11-14T13:53:25;98358.44;;;8.43;100.00
16431;BME280;8325;49.284;7.238;2022-11-14T14:02:45;98359.44;;;8.50;100.00
16431;BME280;8325;49.284;7.238;2022-11-14T14:17:20;98340.41;;;8.42;100.00
16431;BME280;8325;49.284;7.238;2022-11-14T14:35:38;98351.13;;;8.39;100.00
16431;BME280;8325;49.284;7.238;2022-11-14T14:44:55;98349.69;;;8.44;100.00
16431;BME280;8325;49.284;7.238;2022-11-14T14:49:35;98359.75;;;8.47;100.00
16431;BME280;8325;49.284;7.238;2022-11-14T14:54:21;98354.22;;;8.50;100.00
16431;BME280;8325;49.284;7.238;2022-11-14T14:58:52;98362.66;;;8.52;100.00
16431;BME280;8325;49.284;7.238;2022-11-14T15:03:23;98357.13;;;8.56;100.00
16431;BME280;8325;49.284;7.238;2022-11-14T15:07:56;98367.06;;;8.60;100.00
16431;BME280;8325;49.284;7.238;2022-11-14T15:12:28;98359.25;;;8.60;100.00
16431;BME280;8325;49.284;7.238;2022-11-14T15:17:00;98358.72;;;8.65;100.00
16431;BME280;8325;49.284;7.238;2022-11-14T15:21:32;98368.34;;;8.64;100.00
16431;BME280;8325;49.284;7.238;2022-11-14T15:26:10;98364.13;;;8.63;100.00
16431;BME280;8325;49.284;7.238;2022-11-14T15:30:41;98364.94;;;8.64;100.00
16431;BME280;8325;49.284;7.238;2022-11-14T15:40:18;98372.41;;;8.75;100.00
16431;BME280;8325;49.284;7.238;2022-11-14T15:44:49;98384.91;;;8.80;100.00
16431;BME280;8325;49.284;7.238;2022-11-14T15:49:22;98362.59;;;8.85;100.00
16431;BME280;8325;49.284;7.238;2022-11-14T15:59:47;98385.69;;;8.96;100.00
16431;BME280;8325;49.284;7.238;2022-11-14T16:04:27;98380.47;;;8.96;100.00
16431;BME280;8325;49.284;7.238;2022-11-14T16:08:58;98382.09;;;8.97;100.00
16431;BME280;8325;49.284;7.238;2022-11-14T16:13:29;98380.94;;;9.00;100.00
16431;BME280;8325;49.284;7.238;2022-11-14T16:17:59;98379.75;;;9.11;100.00
16431;BME280;8325;49.284;7.238;2022-11-14T16:22:29;98377.13;;;9.19;100.00
16431;BME280;8325;49.284;7.238;2022-11-14T16:27:00;98375.19;;;9.21;100.00
16431;BME280;8325;49.284;7.238;2022-11-14T16:31:31;98381.34;;;9.20;100.00
16431;BME280;8325;49.284;7.238;2022-11-14T16:36:01;98386.22;;;9.23;100.00
16431;BME280;8325;49.284;7.238;2022-11-14T16:40:32;98382.16;;;9.20;100.00
16431;BME280;8325;49.284;7.238;2022-11-14T16:45:03;98385.28;;;9.16;100.00
16431;BME280;8325;49.284;7.238;2022-11-14T16:49:34;98400.28;;;9.14;100.00
16431;BME280;8325;49.284;7.238;2022-11-14T16:54:05;98404.53;;;9.15;100.00
16431;BME280;8325;49.284;7.238;2022-11-14T16:58:35;98409.06;;;9.21;100.00
16431;BME280;8325;49.284;7.238;2022-11-14T17:03:08;98402.50;;;9.33;100.00
16431;BME280;8325;49.284;7.238;2022-11-14T17:07:39;98404.78;;;9.36;100.00
16431;BME280;8325;49.284;7.238;2022-11-14T17:12:10;98403.78;;;9.37;100.00
16431;BME280;8325;49.284;7.238;2022-11-14T17:16:41;98401.31;;;9.36;100.00
16431;BME280;8325;49.284;7.238;2022-11-14T17:21:11;98392.53;;;9.37;100.00
16431;BME280;8325;49.284;7.238;2022-11-14T17:25:42;98396.09;;;9.44;100.00
16431;BME280;8325;49.284;7.238;2022-11-14T17:30:14;98392.91;;;9.57;100.00
16431;BME280;8325;49.284;7.238;2022-11-14T17:34:44;98397.78;;;9.60;100.00
16431;BME280;8325;49.284;7.238;2022-11-14T17:39:15;98398.75;;;9.67;100.00
16431;BME280;8325;49.284;7.238;2022-11-14T17:43:45;98393.00;;;9.72;100.00
16431;BME280;8325;49.284;7.238;2022-11-14T17:48:16;98401.13;;;9.77;100.00
16431;BME280;8325;49.284;7.238;2022-11-14T17:52:46;98403.41;;;9.80;100.00
16431;BME280;8325;49.284;7.238;2022-11-14T17:57:16;98399.56;;;9.90;100.00
16431;BME280;8325;49.284;7.238;2022-11-14T18:01:47;98406.44;;;9.91;100.00
16431;BME280;8325;49.284;7.238;2022-11-14T18:06:18;98409.66;;;9.94;100.00
16431;BME280;8325;49.284;7.238;2022-11-14T18:10:49;98424.03;;;9.89;100.00
16431;BME280;8325;49.284;7.238;2022-11-14T18:15:19;98432.09;;;9.80;100.00
16431;BME280;8325;49.284;7.238;2022-11-14T18:19:56;98429.03;;;9.76;100.00
16431;BME280;8325;49.284;7.238;2022-11-14T18:24:29;98433.09;;;10.02;100.00
16431;BME280;8325;49.284;7.238;2022-11-14T18:29:00;98424.88;;;10.13;100.00
16431;BME280;8325;49.284;7.238;2022-11-14T18:33:33;98423.19;;;10.20;100.00
16431;BME280;8325;49.284;7.238;2022-11-14T18:38:04;98431.53;;;10.15;99.71
16431;BME280;8325;49.284;7.238;2022-11-14T18:42:35;98426.97;;;10.18;99.20
16431;BME280;8325;49.284;7.238;2022-11-14T18:47:05;98445.06;;;10.19;99.26
16431;BME280;8325;49.284;7.238;2022-11-14T18:51:35;98440.13;;;10.24;98.39
16431;BME280;8325;49.284;7.238;2022-11-14T18:56:13;98435.56;;;10.26;98.22
16431;BME280;8325;49.284;7.238;2022-11-14T19:00:43;98436.38;;;10.27;98.09
16431;BME280;8325;49.284;7.238;2022-11-14T19:05:14;98435.22;;;10.29;97.75
16431;BME280;8325;49.284;7.238;2022-11-14T19:09:44;98436.50;;;10.33;97.74
16431;BME280;8325;49.284;7.238;2022-11-14T19:14:15;98430.91;;;10.36;96.21
16431;BME280;8325;49.284;7.238;2022-11-14T19:18:45;98431.72;;;10.37;96.47
16431;BME280;8325;49.284;7.238;2022-11-14T19:23:15;98419.66;;;10.36;96.39
16431;BME280;8325;49.284;7.238;2022-11-14T19:27:50;98418.50;;;10.39;96.55
16431;BME280;8325;49.284;7.238;2022-11-14T19:32:20;98415.47;;;10.50;94.93
16431;BME280;8325;49.284;7.238;2022-11-14T19:36:50;98422.44;;;10.57;94.56
16431;BME280;8325;49.284;7.238;2022-11-14T19:41:29;98428.47;;;10.58;94.31
16431;BME280;8325;49.284;7.238;2022-11-14T19:46:04;98424.50;;;10.62;93.88
16431;BME280;8325;49.284;7.238;2022-11-14T19:50:34;98427.03;;;10.70;93.34
16431;BME280;8325;49.284;7.238;2022-11-14T19:55:05;98433.53;;;10.74;93.06
16431;BME280;8325;49.284;7.238;2022-11-14T19:59:35;98431.91;;;10.73;92.83
16431;BME280;8325;49.284;7.238;2022-11-14T20:04:05;98429.59;;;10.78;92.35
16431;BME280;8325;49.284;7.238;2022-11-14T20:08:36;98434.81;;;10.78;92.45
16431;BME280;8325;49.284;7.238;2022-11-14T20:13:06;98439.22;;;10.78;92.21
16431;BME280;8325;49.284;7.238;2022-11-14T20:17:36;98440.41;;;10.75;92.40
16431;BME280;8325;49.284;7.238;2022-11-14T20:22:06;98447.22;;;10.76;92.38
16431;BME280;8325;49.284;7.238;2022-11-14T20:26:37;98447.59;;;10.73;93.05
16431;BME280;8325;49.284;7.238;2022-11-14T20:31:11;98456.44;;;10.72;93.03
16431;BME280;8325;49.284;7.238;2022-11-14T20:35:41;98456.78;;;10.69;92.96
16431;BME280;8325;49.284;7.238;2022-11-14T20:40:12;98464.16;;;10.80;92.63
16431;BME280;8325;49.284;7.238;2022-11-14T20:44:42;98467.97;;;10.78;92.20
16431;BME280;8325;49.284;7.238;2022-11-14T20:49:13;98476.88;;;10.83;92.31
16431;BME280;8325;49.284;7.238;2022-11-14T20:53:43;98476.88;;;10.83;92.17
16431;BME280;8325;49.284;7.238;2022-11-14T20:58:14;98469.63;;;10.94;91.37
16431;BME280;8325;49.284;7.238;2022-11-14T21:02:44;98468.97;;;10.92;91.13
16431;BME280;8325;49.284;7.238;2022-11-14T21:07:15;98469.25;;;10.97;91.01
16431;BME280;8325;49.284;7.238;2022-11-14T21:11:45;98472.03;;;10.95;91.40
16431;BME280;8325;49.284;7.238;2022-11-14T21:16:17;98465.66;;;10.98;91.16
16431;BME280;8325;49.284;7.238;2022-11-14T21:20:48;98461.13;;;10.92;91.45
16431;BME280;8325;49.284;7.238;2022-11-14T21:25:18;98465.47;;;10.85;92.61
16431;BME280;8325;49.284;7.238;2022-11-14T21:29:48;98473.00;;;10.79;92.76
16431;BME280;8325;49.284;7.238;2022-11-14T21:34:19;98465.34;;;10.78;92.98
16431;BME280;8325;49.284;7.238;2022-11-14T21:38:49;98465.34;;;10.78;93.18
16431;BME280;8325;49.284;7.238;2022-11-14T21:43:21;98457.69;;;10.76;93.04
16431;BME280;8325;49.284;7.238;2022-11-14T21:47:52;98466.97;;;10.79;93.05
16431;BME280;8325;49.284;7.238;2022-11-14T21:52:22;98469.13;;;10.75;93.40
16431;BME280;8325;49.284;7.238;2022-11-14T21:56:52;98454.78;;;10.71;94.07
16431;BME280;8325;49.284;7.238;2022-11-14T22:01:23;98460.00;;;10.71;94.23
16431;BME280;8325;49.284;7.238;2022-11-14T22:06:12;98456.59;;;10.71;94.75
16431;BME280;8325;49.284;7.238;2022-11-14T22:10:42;98445.63;;;10.75;94.62
16431;BME280;8325;49.284;7.238;2022-11-14T22:15:12;98455.97;;;10.83;94.29
16431;BME280;8325;49.284;7.238;2022-11-14T22:19:43;98450.16;;;10.96;94.42
16431;BME280;8325;49.284;7.238;2022-11-14T22:24:13;98447.44;;;11.04;94.78
16431;BME280;8325;49.284;7.238;2022-11-14T22:28:43;98444.03;;;11.04;96.31
